createdAt,value
2022-09-10T00:00:00.816Z,85.7
2022-09-10T00:01:00.983Z,85.9
2022-09-10T00:02:01.185Z,85.9
2022-09-10T00:03:01.293Z,85.8
2022-09-10T00:04:00.400Z,85.8
2022-09-10T00:05:00.612Z,85.8
2022-09-10T00:06:00.729Z,85.8
2022-09-10T00:07:00.835Z,85.8
2022-09-10T00:08:00.990Z,85.9
2022-09-10T00:09:01.140Z,85.9
2022-09-10T00:10:00.279Z,86
2022-09-10T00:11:00.436Z,86.1
2022-09-10T00:12:00.607Z,86.1
2022-09-10T00:13:00.723Z,86.1
2022-09-10T00:14:00.874Z,86.1
2022-09-10T00:15:01.018Z,86.3
2022-09-10T00:16:01.207Z,86.6
2022-09-10T00:17:00.329Z,86.7
2022-09-10T00:18:00.471Z,86.6
2022-09-10T00:19:00.611Z,86.7
2022-09-10T00:20:00.748Z,86.6
2022-09-10T00:21:00.903Z,86.6
2022-09-10T00:22:01.037Z,86.8
2022-09-10T00:23:01.216Z,86.7
2022-09-10T00:24:00.322Z,86.9
2022-09-10T00:25:01.690Z,86.8
2022-09-10T00:26:00.629Z,86.9
2022-09-10T00:27:00.781Z,86.8
2022-09-10T00:28:00.938Z,87.1
2022-09-10T00:29:01.077Z,87.1
2022-09-10T00:30:01.218Z,86.9
2022-09-10T00:31:00.418Z,86.7
2022-09-10T00:32:00.505Z,86.9
2022-09-10T00:33:00.655Z,87.1
2022-09-10T00:34:00.854Z,87.2
2022-09-10T00:35:00.975Z,87
2022-09-10T00:36:01.128Z,86.8
2022-09-10T00:37:00.287Z,87
2022-09-10T00:38:00.433Z,86.9
2022-09-10T00:39:00.599Z,86.8
2022-09-10T00:40:00.793Z,86.9
2022-09-10T00:41:00.872Z,87.1
2022-09-10T00:42:01.032Z,87.3
2022-09-10T00:43:01.169Z,86.8
2022-09-10T00:44:00.317Z,86.8
2022-09-10T00:45:00.481Z,86.9
2022-09-10T00:46:00.658Z,86.8
2022-09-10T00:47:00.761Z,86.8
2022-09-10T00:48:00.925Z,86.7
2022-09-10T00:49:01.066Z,86.6
2022-09-10T00:50:01.246Z,86.7
2022-09-10T00:51:00.359Z,86.6
2022-09-10T00:52:00.522Z,86.5
2022-09-10T00:53:00.659Z,86.3
2022-09-10T00:54:00.813Z,86.2
2022-09-10T00:55:00.993Z,86.2
2022-09-10T00:56:01.117Z,86.1
2022-09-10T00:57:00.265Z,86.2
2022-09-10T00:58:00.424Z,86.1
2022-09-10T00:59:00.567Z,86.1
2022-09-10T01:00:00.738Z,86
2022-09-10T01:01:00.960Z,86
2022-09-10T01:02:01.077Z,86.1
2022-09-10T01:03:01.159Z,86.3
2022-09-10T01:04:00.301Z,86.2
2022-09-10T01:05:00.467Z,86.2
2022-09-10T01:06:00.607Z,86.3
2022-09-10T01:07:00.752Z,86.2
2022-09-10T01:08:00.924Z,86.3
2022-09-10T01:09:01.041Z,86.4
2022-09-10T01:10:01.184Z,86.4
2022-09-10T01:11:00.328Z,86.3
2022-09-10T01:12:00.468Z,86.4
2022-09-10T01:13:00.624Z,86.5
2022-09-10T01:14:00.768Z,86.8
2022-09-10T01:15:00.912Z,86.7
2022-09-10T01:16:01.103Z,86.6
2022-09-10T01:17:01.224Z,86.7
2022-09-10T01:18:00.353Z,86.8
2022-09-10T01:19:00.495Z,86.9
2022-09-10T01:20:00.645Z,86.9
2022-09-10T01:21:00.790Z,87
2022-09-10T01:22:00.950Z,86.9
2022-09-10T01:23:01.113Z,86.9
2022-09-10T01:24:01.225Z,87
2022-09-10T01:25:00.375Z,87.1
2022-09-10T01:26:00.525Z,87.1
2022-09-10T01:27:00.680Z,87.2
2022-09-10T01:28:00.816Z,87.1
2022-09-10T01:29:00.960Z,87.1
2022-09-10T01:30:01.109Z,87
2022-09-10T01:32:00.378Z,87.1
2022-09-10T01:33:00.513Z,87.1
2022-09-10T01:34:00.678Z,87.1
2022-09-10T01:35:00.810Z,87.1
2022-09-10T01:36:00.955Z,87.1
2022-09-10T01:37:01.111Z,87.2
2022-09-10T01:38:01.256Z,87.1
2022-09-10T01:39:00.415Z,87.1
2022-09-10T01:40:00.604Z,87.2
2022-09-10T01:41:00.687Z,87.3
2022-09-10T01:42:00.828Z,87.4
2022-09-10T01:43:00.982Z,87.6
2022-09-10T01:44:01.106Z,87.8
2022-09-10T01:45:00.262Z,87.9
2022-09-10T01:46:00.433Z,88
2022-09-10T01:47:00.553Z,87.9
2022-09-10T01:48:00.696Z,87.9
2022-09-10T01:49:00.857Z,88
2022-09-10T01:50:01.023Z,88
2022-09-10T01:51:01.142Z,88
2022-09-10T01:52:00.279Z,88
2022-09-10T01:53:00.435Z,87.9
2022-09-10T01:54:00.580Z,87.9
2022-09-10T01:55:00.739Z,87.8
2022-09-10T01:56:00.878Z,87.7
2022-09-10T01:57:01.033Z,87.6
2022-09-10T01:58:01.184Z,87.7
2022-09-10T01:59:00.332Z,87.6
2022-09-10T02:00:00.490Z,87.6
2022-09-10T02:01:00.637Z,87.6
2022-09-10T02:02:00.802Z,87.5
2022-09-10T02:03:00.913Z,87.7
2022-09-10T02:04:01.054Z,87.6
2022-09-10T02:05:01.232Z,87.7
2022-09-10T02:06:00.348Z,87.6
2022-09-10T02:07:00.504Z,87.5
2022-09-10T02:08:00.647Z,87.5
2022-09-10T02:09:00.805Z,87.5
2022-09-10T02:10:00.961Z,87.5
2022-09-10T02:11:01.096Z,87.4
2022-09-10T02:12:01.227Z,87.3
2022-09-10T02:13:00.383Z,87.2
2022-09-10T02:14:00.531Z,87.4
2022-09-10T02:15:00.690Z,87.4
2022-09-10T02:16:00.883Z,87.3
2022-09-10T02:17:00.967Z,87.4
2022-09-10T02:18:01.119Z,87.5
2022-09-10T02:19:00.257Z,87.5
2022-09-10T02:20:00.416Z,87.3
2022-09-10T02:21:00.554Z,87.3
2022-09-10T02:22:00.713Z,87.2
2022-09-10T02:23:00.858Z,87.2
2022-09-10T02:24:00.997Z,87.2
2022-09-10T02:25:01.163Z,87.2
2022-09-10T02:26:00.290Z,87.4
2022-09-10T02:27:00.428Z,87.5
2022-09-10T02:28:00.574Z,87.7
2022-09-10T02:29:00.721Z,87.8
2022-09-10T02:30:00.874Z,87.9
2022-09-10T02:31:01.013Z,88
2022-09-10T02:32:01.151Z,88.1
2022-09-10T02:33:00.302Z,88
2022-09-10T02:34:00.444Z,87.6
2022-09-10T02:35:00.616Z,87.3
2022-09-10T02:36:00.743Z,87.3
2022-09-10T02:37:00.895Z,87.2
2022-09-10T02:38:01.040Z,87.1
2022-09-10T02:39:01.187Z,87
2022-09-10T02:40:00.499Z,87.1
2022-09-10T02:41:00.479Z,87
2022-09-10T02:42:00.620Z,87
2022-09-10T02:43:00.773Z,86.9
2022-09-10T02:44:00.928Z,86.8
2022-09-10T02:45:01.101Z,86.8
2022-09-10T02:46:01.330Z,86.9
2022-09-10T02:47:00.369Z,86.8
2022-09-10T02:48:00.509Z,86.8
2022-09-10T02:49:00.672Z,86.7
2022-09-10T02:50:00.826Z,86.6
2022-09-10T02:51:00.978Z,86.8
2022-09-10T02:52:01.107Z,86.8
2022-09-10T02:53:01.252Z,86.8
2022-09-10T02:54:00.413Z,86.8
2022-09-10T02:55:00.545Z,86.8
2022-09-10T02:56:00.695Z,86.7
2022-09-10T02:57:00.845Z,86.8
2022-09-10T02:58:00.987Z,86.8
2022-09-10T02:59:01.164Z,86.8
2022-09-10T03:00:00.293Z,86.9
2022-09-10T03:01:00.499Z,86.9
2022-09-10T03:02:00.638Z,86.8
2022-09-10T03:03:03.078Z,87
2022-09-10T03:04:00.908Z,86.9
2022-09-10T03:05:01.139Z,87
2022-09-10T03:06:01.186Z,87
2022-09-10T03:07:00.327Z,87.1
2022-09-10T03:08:00.465Z,87.1
2022-09-10T03:09:00.653Z,87.1
2022-09-10T03:10:00.773Z,87.2
2022-09-10T03:11:00.917Z,87.2
2022-09-10T03:12:01.056Z,87.2
2022-09-10T03:13:01.201Z,87.3
2022-09-10T03:14:00.364Z,87.2
2022-09-10T03:15:00.522Z,87.1
2022-09-10T03:16:00.759Z,87
2022-09-10T03:17:00.794Z,87.2
2022-09-10T03:18:00.942Z,87.1
2022-09-10T03:19:01.098Z,86.9
2022-09-10T03:20:01.251Z,87
2022-09-10T03:21:00.389Z,86.7
2022-09-10T03:22:00.540Z,86.8
2022-09-10T03:23:00.692Z,86.7
2022-09-10T03:24:00.862Z,86.7
2022-09-10T03:25:00.993Z,86.7
2022-09-10T03:26:01.141Z,86.6
2022-09-10T03:27:00.276Z,86.6
2022-09-10T03:28:00.439Z,86.6
2022-09-10T03:29:00.601Z,86.6
2022-09-10T03:30:00.733Z,86.5
2022-09-10T03:31:00.881Z,86.3
2022-09-10T03:32:01.030Z,86.2
2022-09-10T03:33:01.182Z,86.2
2022-09-10T03:34:00.354Z,86.4
2022-09-10T03:35:00.494Z,86.3
2022-09-10T03:36:00.631Z,86.4
2022-09-10T03:37:00.781Z,86.3
2022-09-10T03:38:00.924Z,86.5
2022-09-10T03:39:01.098Z,86.6
2022-09-10T03:40:01.322Z,86.6
2022-09-10T03:41:00.356Z,86.6
2022-09-10T03:42:00.530Z,86.8
2022-09-10T03:43:00.660Z,86.8
2022-09-10T03:44:00.814Z,86.8
2022-09-10T03:45:00.958Z,86.8
2022-09-10T03:46:01.155Z,86.8
2022-09-10T03:47:01.275Z,86.8
2022-09-10T03:48:00.391Z,87.1
2022-09-10T03:49:00.544Z,87
2022-09-10T03:50:00.696Z,87.1
2022-09-10T03:51:00.851Z,87.2
2022-09-10T03:52:01.014Z,87
2022-09-10T03:53:01.162Z,87.1
2022-09-10T03:54:00.285Z,87.1
2022-09-10T03:55:00.420Z,87.2
2022-09-10T03:56:00.571Z,87.1
2022-09-10T03:57:00.715Z,87.2
2022-09-10T03:58:00.899Z,87.5
2022-09-10T03:59:01.008Z,87.3
2022-09-10T04:00:01.159Z,87.1
2022-09-10T04:01:00.341Z,86.9
2022-09-10T04:02:00.497Z,86.8
2022-09-10T04:03:00.616Z,86.9
2022-09-10T04:04:00.778Z,86.6
2022-09-10T04:05:00.890Z,86.8
2022-09-10T04:06:01.037Z,86.6
2022-09-10T04:07:01.193Z,86.6
2022-09-10T04:08:00.330Z,86.8
2022-09-10T04:09:00.502Z,86.5
2022-09-10T04:10:00.621Z,86.4
2022-09-10T04:11:00.779Z,86.4
2022-09-10T04:12:00.929Z,86.3
2022-09-10T04:13:01.068Z,86.3
2022-09-10T04:14:01.250Z,86.3
2022-09-10T04:15:00.375Z,86.2
2022-09-10T04:16:00.525Z,86.3
2022-09-10T04:17:01.651Z,86.2
2022-09-10T04:18:00.819Z,86
2022-09-10T04:19:00.987Z,86.1
2022-09-10T04:20:01.133Z,86.4
2022-09-10T04:22:00.365Z,86.6
2022-09-10T04:23:00.513Z,86.7
2022-09-10T04:24:00.724Z,86.5
2022-09-10T04:25:00.829Z,86
2022-09-10T04:26:00.961Z,86
2022-09-10T04:27:01.108Z,86.4
2022-09-10T04:28:01.243Z,86.4
2022-09-10T04:29:00.397Z,86.4
2022-09-10T04:30:00.564Z,86.4
2022-09-10T04:31:00.683Z,86.6
2022-09-10T04:32:00.899Z,86.5
2022-09-10T04:33:00.984Z,86.6
2022-09-10T04:34:01.137Z,86.7
2022-09-10T04:35:00.301Z,86.7
2022-09-10T04:36:00.410Z,86.3
2022-09-10T04:37:00.569Z,86.3
2022-09-10T04:38:00.738Z,86.4
2022-09-10T04:39:00.892Z,86.4
2022-09-10T04:40:01.214Z,86.3
2022-09-10T04:41:01.194Z,86.3
2022-09-10T04:42:00.329Z,86.5
2022-09-10T04:43:00.482Z,86.6
2022-09-10T04:44:00.626Z,86.6
2022-09-10T04:45:00.793Z,86.7
2022-09-10T04:46:00.982Z,86.8
2022-09-10T04:47:01.070Z,86.6
2022-09-10T04:48:06.196Z,86.5
2022-09-10T04:49:00.367Z,86.2
2022-09-10T04:50:00.531Z,86
2022-09-10T04:51:15.733Z,86
2022-09-10T04:52:00.835Z,86.1
2022-09-10T04:53:00.962Z,86
2022-09-10T04:54:01.107Z,86.2
2022-09-10T04:55:01.257Z,86.2
2022-09-10T04:56:00.397Z,86.6
2022-09-10T04:57:00.573Z,86.4
2022-09-10T04:58:00.692Z,86.1
2022-09-10T04:59:00.826Z,86
2022-09-10T05:00:00.973Z,86.2
2022-09-10T05:01:01.147Z,86.1
2022-09-10T05:02:00.300Z,86.2
2022-09-10T05:03:00.413Z,86.1
2022-09-10T05:04:00.572Z,86
2022-09-10T05:05:00.708Z,86.2
2022-09-10T05:06:00.870Z,86.1
2022-09-10T05:07:01.007Z,86.2
2022-09-10T05:08:01.168Z,86
2022-09-10T05:09:00.319Z,86.1
2022-09-10T05:10:00.445Z,86.3
2022-09-10T05:11:00.606Z,86.5
2022-09-10T05:12:00.742Z,86.3
2022-09-10T05:13:00.890Z,86.1
2022-09-10T05:14:01.069Z,86.3
2022-09-10T05:15:01.180Z,86.5
2022-09-10T05:16:00.331Z,86.3
2022-09-10T05:17:00.465Z,85.9
2022-09-10T05:18:00.602Z,86.2
2022-09-10T05:19:00.777Z,86.1
2022-09-10T05:20:00.895Z,86
2022-09-10T05:21:01.036Z,86.3
2022-09-10T05:22:01.182Z,86.4
2022-09-10T05:23:00.328Z,86.3
2022-09-10T05:24:00.495Z,86.2
2022-09-10T05:25:00.616Z,86
2022-09-10T05:26:00.757Z,85.9
2022-09-10T05:27:00.891Z,86.1
2022-09-10T05:28:01.057Z,86
2022-09-10T05:29:01.210Z,85.7
2022-09-10T05:30:00.332Z,85.5
2022-09-10T05:31:00.513Z,85.9
2022-09-10T05:32:00.647Z,85.9
2022-09-10T05:33:00.806Z,85.9
2022-09-10T05:34:00.968Z,85.9
2022-09-10T05:35:01.103Z,85.8
2022-09-10T05:36:01.248Z,85.6
2022-09-10T05:37:00.397Z,85.8
2022-09-10T05:38:00.555Z,85.7
2022-09-10T05:39:00.713Z,85.5
2022-09-10T05:40:00.927Z,85.6
2022-09-10T05:41:00.991Z,85.6
2022-09-10T05:42:01.140Z,85.1
2022-09-10T05:43:00.286Z,85.4
2022-09-10T05:44:00.437Z,85.5
2022-09-10T05:45:00.611Z,85.5
2022-09-10T05:46:00.891Z,84.9
2022-09-10T05:47:00.885Z,85.2
2022-09-10T05:48:01.038Z,85.6
2022-09-10T05:49:01.177Z,85.3
2022-09-10T05:50:00.347Z,85.2
2022-09-10T05:51:00.474Z,85.4
2022-09-10T05:52:00.614Z,85.5
2022-09-10T05:53:00.767Z,85.4
2022-09-10T05:54:00.906Z,85.6
2022-09-10T05:55:01.060Z,85.1
2022-09-10T05:56:01.211Z,85.1
2022-09-10T05:57:00.341Z,85.3
2022-09-10T05:58:00.484Z,85.7
2022-09-10T05:59:00.633Z,85.4
2022-09-10T06:00:00.779Z,85.1
2022-09-10T06:01:00.950Z,85.3
2022-09-10T06:02:01.189Z,85.4
2022-09-10T06:03:01.428Z,84.9
2022-09-10T06:04:00.380Z,85.1
2022-09-10T06:05:00.518Z,85.4
2022-09-10T06:06:00.682Z,85.2
2022-09-10T06:07:00.812Z,85.3
2022-09-10T06:08:03.365Z,85.1
2022-09-10T06:09:01.108Z,85.2
2022-09-10T06:10:01.269Z,85
2022-09-10T06:11:00.409Z,84.9
2022-09-10T06:13:00.772Z,85
2022-09-10T06:14:00.862Z,85.2
2022-09-10T06:15:01.014Z,85.1
2022-09-10T06:16:01.142Z,85.4
2022-09-10T06:17:00.285Z,85.4
2022-09-10T06:18:00.438Z,84.9
2022-09-10T06:19:00.604Z,84.9
2022-09-10T06:20:00.768Z,85.1
2022-09-10T06:21:00.887Z,85.2
2022-09-10T06:22:01.045Z,85.2
2022-09-10T06:23:01.183Z,85.1
2022-09-10T06:24:00.330Z,85.1
2022-09-10T06:25:00.498Z,85.3
2022-09-10T06:26:00.620Z,85.8
2022-09-10T06:27:00.772Z,85.6
2022-09-10T06:28:00.918Z,85.9
2022-09-10T06:29:01.079Z,85.5
2022-09-10T06:30:01.243Z,85.4
2022-09-10T06:31:00.432Z,85.4
2022-09-10T06:32:00.505Z,85.6
2022-09-10T06:33:00.660Z,85
2022-09-10T06:34:00.800Z,85.7
2022-09-10T06:35:00.972Z,85
2022-09-10T06:36:01.099Z,84.9
2022-09-10T06:37:01.249Z,85
2022-09-10T06:38:00.391Z,85.1
2022-09-10T06:39:00.544Z,84.9
2022-09-10T06:40:00.761Z,84.7
2022-09-10T06:41:00.843Z,84.3
2022-09-10T06:42:00.988Z,84.6
2022-09-10T06:43:01.137Z,84.6
2022-09-10T06:44:00.305Z,84.4
2022-09-10T06:45:00.456Z,83.7
2022-09-10T06:46:00.689Z,84.3
2022-09-10T06:47:39.325Z,84.6
2022-09-10T06:49:01.118Z,83.6
2022-09-10T06:50:01.200Z,83.9
2022-09-10T06:51:00.351Z,84.2
2022-09-10T06:52:00.493Z,84.4
2022-09-10T06:53:00.648Z,84.4
2022-09-10T06:54:00.789Z,84.6
2022-09-10T06:55:00.945Z,84.4
2022-09-10T06:56:01.085Z,84.6
2022-09-10T06:57:01.271Z,84.7
2022-09-10T06:58:00.377Z,84.4
2022-09-10T06:59:02.632Z,84.8
2022-09-10T07:00:00.667Z,84.5
2022-09-10T07:01:00.837Z,84.7
2022-09-10T07:02:01.022Z,84.6
2022-09-10T07:03:01.129Z,84.6
2022-09-10T07:04:01.253Z,84.6
2022-09-10T07:05:00.400Z,84.9
2022-09-10T07:06:00.561Z,84.1
2022-09-10T07:07:00.723Z,84.2
2022-09-10T07:08:00.894Z,84.2
2022-09-10T07:09:01.017Z,84
2022-09-10T07:10:01.157Z,83.7
2022-09-10T07:11:00.312Z,83.7
2022-09-10T07:12:00.462Z,83.9
2022-09-10T07:13:00.626Z,84.3
2022-09-10T07:14:00.777Z,84.1
2022-09-10T07:15:00.907Z,83.8
2022-09-10T07:16:01.187Z,83.2
2022-09-10T07:17:01.204Z,83.2
2022-09-10T07:18:00.352Z,83.6
2022-09-10T07:19:00.523Z,83.6
2022-09-10T07:20:00.650Z,83.2
2022-09-10T07:21:00.808Z,82.9
2022-09-10T07:22:00.961Z,82.6
2022-09-10T07:23:01.103Z,82.7
2022-09-10T07:24:01.376Z,83
2022-09-10T07:25:00.398Z,83
2022-09-10T07:26:00.540Z,83.4
2022-09-10T07:27:00.693Z,83.6
2022-09-10T07:28:00.855Z,83.5
2022-09-10T07:29:01.002Z,83.6
2022-09-10T07:30:01.141Z,83.2
2022-09-10T07:31:00.327Z,82.4
2022-09-10T07:32:00.440Z,82.4
2022-09-10T07:33:00.598Z,81.6
2022-09-10T07:34:00.745Z,81.9
2022-09-10T07:35:00.907Z,82.2
2022-09-10T07:36:01.043Z,82.2
2022-09-10T07:37:01.189Z,82.1
2022-09-10T07:38:00.348Z,81.4
2022-09-10T07:39:00.492Z,81.7
2022-09-10T07:40:00.670Z,82.8
2022-09-10T07:41:00.797Z,82.8
2022-09-10T07:42:00.929Z,82.5
2022-09-10T07:43:01.084Z,82.5
2022-09-10T07:44:01.228Z,82.2
2022-09-10T07:45:00.403Z,82
2022-09-10T07:46:04.128Z,81.8
2022-09-10T07:47:00.676Z,81.6
2022-09-10T07:48:00.828Z,81.7
2022-09-10T07:49:00.993Z,81.5
2022-09-10T07:50:01.137Z,81.4
2022-09-10T07:51:00.263Z,82.1
2022-09-10T07:52:00.465Z,81.4
2022-09-10T07:53:00.592Z,81
2022-09-10T07:54:00.723Z,80.9
2022-09-10T07:55:00.854Z,81.2
2022-09-10T07:56:01.047Z,80.6
2022-09-10T07:57:01.160Z,81
2022-09-10T07:58:00.422Z,80.9
2022-09-10T07:59:00.471Z,80.9
2022-09-10T08:00:00.616Z,81.4
2022-09-10T08:01:00.997Z,81.6
2022-09-10T08:02:00.976Z,81.7
2022-09-10T08:03:01.076Z,81.7
2022-09-10T08:04:01.206Z,80.4
2022-09-10T08:05:00.363Z,80.3
2022-09-10T08:06:00.517Z,80.7
2022-09-10T08:07:00.687Z,80.8
2022-09-10T08:08:00.805Z,81
2022-09-10T08:09:00.958Z,81.4
2022-09-10T08:10:01.102Z,80.8
2022-09-10T08:11:01.243Z,80.9
2022-09-10T08:12:00.393Z,80.7
2022-09-10T08:13:00.548Z,80.9
2022-09-10T08:14:00.685Z,80.8
2022-09-10T08:15:00.839Z,80.3
2022-09-10T08:16:00.998Z,80.2
2022-09-10T08:17:01.124Z,80.2
2022-09-10T08:18:00.275Z,80.4
2022-09-10T08:19:00.421Z,80.4
2022-09-10T08:20:00.606Z,80.8
2022-09-10T08:21:00.735Z,80.8
2022-09-10T08:22:00.864Z,80.4
2022-09-10T08:23:01.011Z,80.9
2022-09-10T08:24:01.157Z,80.4
2022-09-10T08:25:00.335Z,80.1
2022-09-10T08:26:00.459Z,80.2
2022-09-10T08:27:00.589Z,80.3
2022-09-10T08:28:00.749Z,80.8
2022-09-10T08:29:00.896Z,80.2
2022-09-10T08:30:01.059Z,80.5
2022-09-10T08:31:01.229Z,80.5
2022-09-10T08:32:00.315Z,80.4
2022-09-10T08:33:00.471Z,80.3
2022-09-10T08:34:00.615Z,80.3
2022-09-10T08:35:00.769Z,80.3
2022-09-10T08:36:00.893Z,80.2
2022-09-10T08:37:01.048Z,80.6
2022-09-10T08:38:01.189Z,80.8
2022-09-10T08:39:04.020Z,80.4
2022-09-10T08:40:00.523Z,79.9
2022-09-10T08:41:00.621Z,80.3
2022-09-10T08:42:00.768Z,80.9
2022-09-10T08:43:00.913Z,80.7
2022-09-10T08:44:01.066Z,80.8
2022-09-10T08:45:01.222Z,80.2
2022-09-10T08:46:00.390Z,80.4
2022-09-10T08:47:00.497Z,80.8
2022-09-10T08:48:00.645Z,80.9
2022-09-10T08:49:00.797Z,80.2
2022-09-10T08:50:00.964Z,80.8
2022-09-10T08:51:01.094Z,80.6
2022-09-10T08:52:01.234Z,80.8
2022-09-10T08:53:00.383Z,80.8
2022-09-10T08:54:00.542Z,81.2
2022-09-10T08:55:00.709Z,80.8
2022-09-10T08:56:00.850Z,81.4
2022-09-10T08:57:00.985Z,80.7
2022-09-10T08:58:01.131Z,80.7
2022-09-10T08:59:00.283Z,80.7
2022-09-10T09:00:00.462Z,80
2022-09-10T09:01:00.576Z,81.1
2022-09-10T09:02:00.826Z,81.6
2022-09-10T09:03:00.914Z,80.9
2022-09-10T09:04:05.965Z,80.3
2022-09-10T09:05:01.201Z,80.6
2022-09-10T09:06:00.332Z,80.5
2022-09-10T09:07:00.459Z,81.1
2022-09-10T09:08:00.614Z,81
2022-09-10T09:09:00.759Z,80.9
2022-09-10T09:10:00.922Z,80.9
2022-09-10T09:11:01.081Z,80.8
2022-09-10T09:12:01.169Z,81.1
2022-09-10T09:13:00.323Z,80.7
2022-09-10T09:14:00.471Z,80.9
2022-09-10T09:15:00.616Z,81.4
2022-09-10T09:16:00.806Z,81.7
2022-09-10T09:17:00.916Z,81.4
2022-09-10T09:18:01.046Z,81.1
2022-09-10T09:19:01.198Z,80.9
2022-09-10T09:20:00.345Z,80.9
2022-09-10T09:21:00.504Z,80.8
2022-09-10T09:22:00.639Z,81.2
2022-09-10T09:23:00.793Z,81.6
2022-09-10T09:24:13.219Z,81
2022-09-10T09:25:01.115Z,80.2
2022-09-10T09:26:01.237Z,79.6
2022-09-10T09:27:00.399Z,80.3
2022-09-10T09:28:00.541Z,80.4
2022-09-10T09:29:00.685Z,79.9
2022-09-10T09:30:00.835Z,80.3
2022-09-10T09:31:01.154Z,80.5
2022-09-10T09:32:01.155Z,79.9
2022-09-10T09:33:00.287Z,78.6
2022-09-10T09:34:00.423Z,79
2022-09-10T09:35:00.572Z,78.9
2022-09-10T09:36:00.717Z,79.1
2022-09-10T09:37:00.880Z,79.5
2022-09-10T09:38:01.036Z,79.9
2022-09-10T09:39:01.159Z,79.9
2022-09-10T09:40:00.369Z,79.1
2022-09-10T09:41:00.453Z,79.2
2022-09-10T09:42:00.600Z,79.5
2022-09-10T09:43:00.753Z,79.4
2022-09-10T09:44:00.896Z,78.7
2022-09-10T09:45:01.043Z,78.8
2022-09-10T09:46:01.258Z,79.6
2022-09-10T09:47:00.343Z,80.2
2022-09-10T09:48:00.492Z,79.9
2022-09-10T09:49:00.639Z,79.1
2022-09-10T09:50:00.784Z,79.3
2022-09-10T09:51:00.953Z,78.4
2022-09-10T09:52:01.083Z,77.2
2022-09-10T09:53:01.227Z,77.5
2022-09-10T09:54:34.421Z,78.3
2022-09-10T09:55:14.234Z,78.7
2022-09-10T09:56:00.687Z,79.4
2022-09-10T09:57:00.836Z,79
2022-09-10T09:58:00.964Z,77.8
2022-09-10T09:59:01.129Z,77.9
2022-09-10T10:00:01.258Z,77.6
2022-09-10T10:01:00.406Z,76.8
2022-09-10T10:02:00.633Z,78.3
2022-09-10T10:03:00.687Z,78.5
2022-09-10T10:04:00.837Z,77.1
2022-09-10T10:05:00.996Z,78.1
2022-09-10T10:06:01.127Z,76.4
2022-09-10T10:07:00.267Z,76.4
2022-09-10T10:08:00.415Z,77.6
2022-09-10T10:09:00.570Z,76.1
2022-09-10T10:10:00.725Z,77
2022-09-10T10:11:00.858Z,77.6
2022-09-10T10:12:01.009Z,77
2022-09-10T10:13:01.143Z,76.6
2022-09-10T10:14:00.294Z,75.9
2022-09-10T10:15:00.452Z,75.3
2022-09-10T10:16:00.600Z,75.7
2022-09-10T10:17:01.128Z,76.2
2022-09-10T10:18:00.881Z,76.7
2022-09-10T10:19:01.038Z,75.7
2022-09-10T10:20:01.204Z,76.8
2022-09-10T10:21:00.325Z,75.9
2022-09-10T10:22:00.479Z,75.7
2022-09-10T10:23:00.633Z,75.6
2022-09-10T10:24:00.778Z,77.3
2022-09-10T10:25:00.959Z,76.6
2022-09-10T10:26:01.079Z,76.1
2022-09-10T10:27:01.227Z,76.7
2022-09-10T10:28:00.380Z,77.5
2022-09-10T10:29:00.519Z,76
2022-09-10T10:30:00.690Z,75.9
2022-09-10T10:31:00.878Z,77.9
2022-09-10T10:32:05.479Z,76.6
2022-09-10T10:33:01.125Z,76.8
2022-09-10T10:34:00.264Z,76.8
2022-09-10T10:35:00.406Z,76.6
2022-09-10T10:36:00.586Z,76.8
2022-09-10T10:37:00.707Z,76.9
2022-09-10T10:38:00.854Z,77.2
2022-09-10T10:39:00.995Z,76.7
2022-09-10T10:40:01.372Z,76.9
2022-09-10T10:41:00.329Z,77.1
2022-09-10T10:42:00.445Z,77.1
2022-09-10T10:43:00.580Z,76.2
2022-09-10T10:44:00.740Z,76.7
2022-09-10T10:45:00.898Z,76.4
2022-09-10T10:46:01.144Z,76.2
2022-09-10T10:47:01.184Z,76.6
2022-09-10T10:48:00.338Z,77.5
2022-09-10T10:49:03.572Z,77.1
2022-09-10T10:50:00.630Z,77.1
2022-09-10T10:51:00.811Z,77.3
2022-09-10T10:52:00.926Z,78.4
2022-09-10T10:53:01.075Z,77.6
2022-09-10T10:54:01.274Z,75.8
2022-09-10T10:55:00.393Z,76.9
2022-09-10T10:56:00.594Z,78.1
2022-09-10T10:57:00.672Z,77.3
2022-09-10T10:58:00.814Z,77.1
2022-09-10T10:59:00.979Z,76.7
2022-09-10T11:00:01.113Z,76.8
2022-09-10T11:02:00.542Z,76.6
2022-09-10T11:03:00.508Z,75.6
2022-09-10T11:04:00.665Z,76.4
2022-09-10T11:05:00.810Z,76.4
2022-09-10T11:06:00.962Z,76.6
2022-09-10T11:07:01.128Z,76.4
2022-09-10T11:08:01.239Z,75.5
2022-09-10T11:09:00.388Z,76.3
2022-09-10T11:10:00.543Z,76.2
2022-09-10T11:11:00.695Z,75.7
2022-09-10T11:12:00.873Z,74.8
2022-09-10T11:13:01.040Z,75.3
2022-09-10T11:14:01.145Z,74.3
2022-09-10T11:15:00.295Z,75.4
2022-09-10T11:16:00.475Z,75.1
2022-09-10T11:17:00.601Z,74.7
2022-09-10T11:18:00.773Z,75.9
2022-09-10T11:19:00.895Z,75.1
2022-09-10T11:20:24.644Z,75.7
2022-09-10T11:21:01.199Z,75.1
2022-09-10T11:22:00.343Z,74.7
2022-09-10T11:23:00.489Z,75.2
2022-09-10T11:24:00.626Z,73.8
2022-09-10T11:25:00.809Z,74.8
2022-09-10T11:26:00.910Z,74.4
2022-09-10T11:27:01.073Z,74.2
2022-09-10T11:28:01.210Z,74.5
2022-09-10T11:29:00.354Z,74.9
2022-09-10T11:30:00.516Z,74.7
2022-09-10T11:31:00.684Z,74.5
2022-09-10T11:32:00.807Z,75.9
2022-09-10T11:33:00.951Z,75.9
2022-09-10T11:34:01.094Z,73.7
2022-09-10T11:35:01.265Z,73.1
2022-09-10T11:36:00.378Z,73.8
2022-09-10T11:37:00.531Z,72.8
2022-09-10T11:38:00.680Z,73.4
2022-09-10T11:39:00.834Z,72.3
2022-09-10T11:40:01.019Z,74.3
2022-09-10T11:41:01.151Z,74.5
2022-09-10T11:42:00.279Z,74.2
2022-09-10T11:43:00.429Z,73.8
2022-09-10T11:44:00.574Z,73.3
2022-09-10T11:45:00.724Z,74.1
2022-09-10T11:46:00.957Z,73.7
2022-09-10T11:47:01.027Z,73.7
2022-09-10T11:48:01.180Z,73.7
2022-09-10T11:49:00.323Z,73.3
2022-09-10T11:50:00.465Z,75
2022-09-10T11:51:00.635Z,73.7
2022-09-10T11:52:00.786Z,73.3
2022-09-10T11:53:00.923Z,74.4
2022-09-10T11:54:01.060Z,74.4
2022-09-10T11:55:01.208Z,73.5
2022-09-10T11:56:00.357Z,73.5
2022-09-10T11:57:00.499Z,72.7
2022-09-10T11:58:00.640Z,73.6
2022-09-10T11:59:00.783Z,73.6
2022-09-10T12:00:00.931Z,75.2
2022-09-10T12:01:01.085Z,74.1
2022-09-10T12:02:01.279Z,73.7
2022-09-10T12:03:00.384Z,74
2022-09-10T12:04:00.576Z,73.7
2022-09-10T12:05:00.686Z,73.7
2022-09-10T12:06:00.818Z,73.6
2022-09-10T12:07:00.999Z,71.8
2022-09-10T12:08:01.160Z,72
2022-09-10T12:09:00.311Z,73.7
2022-09-10T12:10:00.442Z,72.1
2022-09-10T12:11:00.600Z,71.9
2022-09-10T12:12:00.732Z,71.3
2022-09-10T12:13:00.885Z,71.9
2022-09-10T12:14:01.014Z,72.6
2022-09-10T12:15:01.164Z,72.6
2022-09-10T12:16:00.350Z,72.2
2022-09-10T12:17:00.446Z,73.6
2022-09-10T12:18:00.613Z,73.5
2022-09-10T12:19:00.761Z,74
2022-09-10T12:20:00.892Z,74
2022-09-10T12:21:01.047Z,73.8
2022-09-10T12:22:01.187Z,73.8
2022-09-10T12:23:00.345Z,73.9
2022-09-10T12:24:00.516Z,73.5
2022-09-10T12:25:00.625Z,74.3
2022-09-10T12:26:00.783Z,74.5
2022-09-10T12:27:00.931Z,74.9
2022-09-10T12:28:01.082Z,74
2022-09-10T12:29:01.260Z,73.9
2022-09-10T12:30:00.379Z,73.4
2022-09-10T12:31:00.612Z,73.2
2022-09-10T12:32:00.672Z,72.9
2022-09-10T12:33:00.822Z,73.1
2022-09-10T12:34:01.003Z,73.6
2022-09-10T12:35:01.128Z,73.7
2022-09-10T12:36:00.278Z,73.5
2022-09-10T12:37:00.419Z,74.5
2022-09-10T12:38:00.566Z,74.7
2022-09-10T12:39:00.736Z,74.7
2022-09-10T12:40:00.891Z,74.5
2022-09-10T12:41:01.011Z,73.7
2022-09-10T12:42:01.158Z,73.4
2022-09-10T12:43:00.293Z,73.5
2022-09-10T12:44:00.482Z,73.1
2022-09-10T12:45:00.606Z,72.9
2022-09-10T12:46:00.878Z,73.7
2022-09-10T12:47:00.906Z,74.7
2022-09-10T12:48:01.038Z,74.7
2022-09-10T12:49:01.203Z,75.3
2022-09-10T12:50:00.341Z,74.8
2022-09-10T12:51:00.478Z,72.8
2022-09-10T12:52:00.645Z,73.7
2022-09-10T12:53:00.778Z,75.6
2022-09-10T12:54:01.071Z,77.4
2022-09-10T12:55:01.078Z,79.1
2022-09-10T12:56:01.228Z,79.7
2022-09-10T12:57:00.363Z,79.6
2022-09-10T12:58:00.516Z,80.1
2022-09-10T12:59:00.688Z,78.4
2022-09-10T13:00:00.907Z,78
2022-09-10T13:01:00.975Z,77.9
2022-09-10T13:02:01.299Z,77.4
2022-09-10T13:03:00.264Z,78.1
2022-09-10T13:04:00.442Z,77.6
2022-09-10T13:05:00.565Z,77.6
2022-09-10T13:06:00.711Z,77.2
2022-09-10T13:07:00.864Z,77.3
2022-09-10T13:08:01.019Z,76.7
2022-09-10T13:09:01.165Z,77
2022-09-10T13:10:00.316Z,77.9
2022-09-10T13:11:00.448Z,78.8
2022-09-10T13:12:00.598Z,80.5
2022-09-10T13:13:00.738Z,80.7
2022-09-10T13:14:00.928Z,81
2022-09-10T13:15:01.053Z,81.5
2022-09-10T13:16:01.353Z,82
2022-09-10T13:17:00.344Z,82
2022-09-10T13:18:00.487Z,82.1
2022-09-10T13:19:00.654Z,82.3
2022-09-10T13:20:00.844Z,82.5
2022-09-10T13:21:00.940Z,82.5
2022-09-10T13:22:01.124Z,82.4
2022-09-10T13:23:01.237Z,82.4
2022-09-10T13:24:00.383Z,82.2
2022-09-10T13:25:00.533Z,81.5
2022-09-10T13:26:00.680Z,81.8
2022-09-10T13:27:00.849Z,81.8
2022-09-10T13:28:00.977Z,81.8